sensor_id;sensor_type;location;lat;lon;timestamp;pressure;altitude;pressure_sealevel;temperature;humidity
30682;BME280;17439;48.092;11.842;2023-04-22T00:01:18;94891.97;;;11.83;58.27
30682;BME280;17439;48.092;11.842;2023-04-22T00:03:45;94887.53;;;11.78;58.27
30682;BME280;17439;48.092;11.842;2023-04-22T00:06:12;94891.69;;;11.75;58.27
30682;BME280;17439;48.092;11.842;2023-04-22T00:08:39;94881.88;;;11.71;58.33
30682;BME280;17439;48.092;11.842;2023-04-22T00:11:05;94898.00;;;11.67;58.42
30682;BME280;17439;48.092;11.842;2023-04-22T00:13:32;94899.47;;;11.65;58.42
30682;BME280;17439;48.092;11.842;2023-04-22T00:15:59;94892.66;;;11.58;58.56
30682;BME280;17439;48.092;11.842;2023-04-22T00:18:26;94895.25;;;11.55;58.46
30682;BME280;17439;48.092;11.842;2023-04-22T00:20:52;94900.50;;;11.51;58.41
30682;BME280;17439;48.092;11.842;2023-04-22T00:23:19;94895.28;;;11.46;58.58
30682;BME280;17439;48.092;11.842;2023-04-22T00:25:46;94894.34;;;11.42;58.63
30682;BME280;17439;48.092;11.842;2023-04-22T00:28:12;94891.81;;;11.37;58.73
30682;BME280;17439;48.092;11.842;2023-04-22T00:30:39;94886.59;;;11.32;58.72
30682;BME280;17439;48.092;11.842;2023-04-22T00:33:06;94888.84;;;11.30;58.71
30682;BME280;17439;48.092;11.842;2023-04-22T00:35:33;94893.34;;;11.25;58.74
30682;BME280;17439;48.092;11.842;2023-04-22T00:37:59;94884.72;;;11.23;58.81
30682;BME280;17439;48.092;11.842;2023-04-22T00:40:26;94885.38;;;11.20;58.88
30682;BME280;17439;48.092;11.842;2023-04-22T00:42:53;94886.81;;;11.18;58.87
30682;BME280;17439;48.092;11.842;2023-04-22T00:45:20;94885.09;;;11.13;58.96
30682;BME280;17439;48.092;11.842;2023-04-22T00:47:47;94888.47;;;11.10;58.98
30682;BME280;17439;48.092;11.842;2023-04-22T00:50:15;94891.81;;;11.07;59.01
30682;BME280;17439;48.092;11.842;2023-04-22T00:52:41;94883.56;;;11.03;58.96
30682;BME280;17439;48.092;11.842;2023-04-22T00:55:08;94887.75;;;11.01;59.07
30682;BME280;17439;48.092;11.842;2023-04-22T00:57:36;94885.69;;;10.98;59.12
30682;BME280;17439;48.092;11.842;2023-04-22T01:00:04;94887.44;;;10.94;59.29
30682;BME280;17439;48.092;11.842;2023-04-22T01:02:32;94886.50;;;10.89;59.43
30682;BME280;17439;48.092;11.842;2023-04-22T01:04:59;94895.31;;;10.86;59.49
30682;BME280;17439;48.092;11.842;2023-04-22T01:07:26;94886.69;;;10.84;59.65
30682;BME280;17439;48.092;11.842;2023-04-22T01:09:52;94891.63;;;10.82;59.67
30682;BME280;17439;48.092;11.842;2023-04-22T01:12:19;94887.66;;;10.80;59.48
30682;BME280;17439;48.092;11.842;2023-04-22T01:14:46;94892.63;;;10.78;59.61
30682;BME280;17439;48.092;11.842;2023-04-22T01:17:13;94888.31;;;10.77;59.66
30682;BME280;17439;48.092;11.842;2023-04-22T01:19:40;94897.28;;;10.68;59.61
30682;BME280;17439;48.092;11.842;2023-04-22T01:22:11;94895.84;;;10.71;59.93
30682;BME280;17439;48.092;11.842;2023-04-22T01:24:38;94902.81;;;10.72;59.75
30682;BME280;17439;48.092;11.842;2023-04-22T01:27:05;94902.38;;;10.70;59.89
30682;BME280;17439;48.092;11.842;2023-04-22T01:29:32;94902.69;;;10.68;59.95
30682;BME280;17439;48.092;11.842;2023-04-22T01:31:59;94898.72;;;10.66;60.03
30682;BME280;17439;48.092;11.842;2023-04-22T01:34:29;94900.94;;;10.64;60.04
30682;BME280;17439;48.092;11.842;2023-04-22T01:36:56;94900.16;;;10.63;60.05
30682;BME280;17439;48.092;11.842;2023-04-22T01:39:23;94891.06;;;10.59;60.02
30682;BME280;17439;48.092;11.842;2023-04-22T01:41:50;94899.53;;;10.58;60.03
30682;BME280;17439;48.092;11.842;2023-04-22T01:44:16;94892.03;;;10.55;60.05
30682;BME280;17439;48.092;11.842;2023-04-22T01:46:44;94891.91;;;10.51;60.27
30682;BME280;17439;48.092;11.842;2023-04-22T01:49:10;94890.66;;;10.48;60.07
30682;BME280;17439;48.092;11.842;2023-04-22T01:51:37;94895.59;;;10.46;59.93
30682;BME280;17439;48.092;11.842;2023-04-22T01:54:04;94894.00;;;10.45;60.17
30682;BME280;17439;48.092;11.842;2023-04-22T01:56:31;94892.28;;;10.41;60.08
30682;BME280;17439;48.092;11.842;2023-04-22T01:58:58;94891.78;;;10.39;60.14
30682;BME280;17439;48.092;11.842;2023-04-22T02:01:28;94891.31;;;10.37;60.31
30682;BME280;17439;48.092;11.842;2023-04-22T02:03:55;94892.78;;;10.34;60.36
30682;BME280;17439;48.092;11.842;2023-04-22T02:06:22;94891.16;;;10.33;60.11
30682;BME280;17439;48.092;11.842;2023-04-22T02:08:49;94893.38;;;10.31;60.24
30682;BME280;17439;48.092;11.842;2023-04-22T02:11:16;94893.22;;;10.27;60.46
30682;BME280;17439;48.092;11.842;2023-04-22T02:13:42;94896.25;;;10.26;60.51
30682;BME280;17439;48.092;11.842;2023-04-22T02:16:09;94891.47;;;10.23;60.52
30682;BME280;17439;48.092;11.842;2023-04-22T02:18:36;94894.50;;;10.21;60.61
30682;BME280;17439;48.092;11.842;2023-04-22T02:21:03;94891.31;;;10.19;60.63
30682;BME280;17439;48.092;11.842;2023-04-22T02:23:30;94895.47;;;10.16;60.65
30682;BME280;17439;48.092;11.842;2023-04-22T02:25:57;94897.69;;;10.14;60.61
30682;BME280;17439;48.092;11.842;2023-04-22T02:28:23;94894.53;;;10.12;60.75
30682;BME280;17439;48.092;11.842;2023-04-22T02:30:50;94887.50;;;10.11;60.77
30682;BME280;17439;48.092;11.842;2023-04-22T02:33:17;94891.66;;;10.09;60.91
30682;BME280;17439;48.092;11.842;2023-04-22T02:35:43;94892.31;;;10.06;60.73
30682;BME280;17439;48.092;11.842;2023-04-22T02:38:15;94896.91;;;10.05;60.53
30682;BME280;17439;48.092;11.842;2023-04-22T02:40:42;94895.66;;;10.03;60.44
30682;BME280;17439;48.092;11.842;2023-04-22T02:43:10;94897.41;;;9.98;60.63
30682;BME280;17439;48.092;11.842;2023-04-22T02:45:37;94901.25;;;9.97;60.54
30682;BME280;17439;48.092;11.842;2023-04-22T02:48:04;94894.06;;;9.93;60.74
30682;BME280;17439;48.092;11.842;2023-04-22T02:50:31;94893.09;;;9.89;60.86
30682;BME280;17439;48.092;11.842;2023-04-22T02:52:57;94898.84;;;9.87;60.72
30682;BME280;17439;48.092;11.842;2023-04-22T02:55:24;94888.97;;;9.83;60.66
30682;BME280;17439;48.092;11.842;2023-04-22T02:57:50;94897.41;;;9.81;60.72
30682;BME280;17439;48.092;11.842;2023-04-22T03:00:17;94894.56;;;9.77;61.02
30682;BME280;17439;48.092;11.842;2023-04-22T03:02:44;94893.25;;;9.75;60.91
30682;BME280;17439;48.092;11.842;2023-04-22T03:05:13;94894.72;;;9.72;61.04
30682;BME280;17439;48.092;11.842;2023-04-22T03:07:40;94895.34;;;9.69;61.26
30682;BME280;17439;48.092;11.842;2023-04-22T03:10:07;94892.97;;;9.68;61.24
30682;BME280;17439;48.092;11.842;2023-04-22T03:12:34;94886.25;;;9.65;61.23
30682;BME280;17439;48.092;11.842;2023-04-22T03:15:01;94890.88;;;9.65;61.42
30682;BME280;17439;48.092;11.842;2023-04-22T03:17:30;94877.22;;;9.61;61.57
30682;BME280;17439;48.092;11.842;2023-04-22T03:19:59;94872.91;;;9.60;61.30
30682;BME280;17439;48.092;11.842;2023-04-22T03:22:26;94877.84;;;9.58;61.54
30682;BME280;17439;48.092;11.842;2023-04-22T03:24:56;94879.72;;;9.57;61.25
30682;BME280;17439;48.092;11.842;2023-04-22T03:27:22;94876.88;;;9.54;61.50
30682;BME280;17439;48.092;11.842;2023-04-22T03:29:49;94880.22;;;9.51;61.57
30682;BME280;17439;48.092;11.842;2023-04-22T03:32:15;94878.13;;;9.48;61.62
30682;BME280;17439;48.092;11.842;2023-04-22T03:34:43;94870.66;;;9.44;61.66
30682;BME280;17439;48.092;11.842;2023-04-22T03:37:09;94877.19;;;9.43;61.71
30682;BME280;17439;48.092;11.842;2023-04-22T03:39:36;94880.84;;;9.39;61.65
30682;BME280;17439;48.092;11.842;2023-04-22T03:42:05;94874.16;;;9.36;61.86
30682;BME280;17439;48.092;11.842;2023-04-22T03:44:33;94872.91;;;9.34;61.98
30682;BME280;17439;48.092;11.842;2023-04-22T03:47:01;94881.63;;;9.31;61.95
30682;BME280;17439;48.092;11.842;2023-04-22T03:49:34;94877.34;;;9.30;62.11
30682;BME280;17439;48.092;11.842;2023-04-22T03:52:00;94873.34;;;9.27;62.47
30682;BME280;17439;48.092;11.842;2023-04-22T03:54:27;94876.88;;;9.28;62.15
30682;BME280;17439;48.092;11.842;2023-04-22T03:56:54;94881.78;;;9.25;62.19
30682;BME280;17439;48.092;11.842;2023-04-22T03:59:22;94873.19;;;9.23;62.35
30682;BME280;17439;48.092;11.842;2023-04-22T04:01:50;94887.50;;;9.24;62.48
30682;BME280;17439;48.092;11.842;2023-04-22T04:04:19;94880.50;;;9.23;62.30
30682;BME280;17439;48.092;11.842;2023-04-22T04:06:55;94877.81;;;9.23;62.57
30682;BME280;17439;48.092;11.842;2023-04-22T04:09:21;94879.69;;;9.22;62.76
30682;BME280;17439;48.092;11.842;2023-04-22T04:11:48;94881.63;;;9.22;62.81
30682;BME280;17439;48.092;11.842;2023-04-22T04:14:16;94883.22;;;9.23;62.94
30682;BME280;17439;48.092;11.842;2023-04-22T04:16:47;94898.81;;;9.26;62.85
30682;BME280;17439;48.092;11.842;2023-04-22T04:19:22;94888.47;;;9.28;62.60
30682;BME280;17439;48.092;11.842;2023-04-22T04:21:50;94888.16;;;9.30;62.61
30682;BME280;17439;48.092;11.842;2023-04-22T04:24:17;94896.75;;;9.32;62.52
30682;BME280;17439;48.092;11.842;2023-04-22T04:26:48;94893.72;;;9.33;62.37
30682;BME280;17439;48.092;11.842;2023-04-22T04:29:19;94896.91;;;9.35;62.21
30682;BME280;17439;48.092;11.842;2023-04-22T04:31:56;94893.09;;;9.36;62.25
30682;BME280;17439;48.092;11.842;2023-04-22T04:34:25;94903.59;;;9.38;62.34
30682;BME280;17439;48.092;11.842;2023-04-22T04:36:52;94896.28;;;9.38;62.23
30682;BME280;17439;48.092;11.842;2023-04-22T04:39:25;94898.66;;;9.40;62.17
30682;BME280;17439;48.092;11.842;2023-04-22T04:41:54;94901.38;;;9.40;62.18
30682;BME280;17439;48.092;11.842;2023-04-22T04:44:21;94899.47;;;9.40;61.99
30682;BME280;17439;48.092;11.842;2023-04-22T04:46:48;94901.88;;;9.42;62.00
30682;BME280;17439;48.092;11.842;2023-04-22T04:49:15;94904.25;;;9.43;62.05
30682;BME280;17439;48.092;11.842;2023-04-22T04:51:50;94900.41;;;9.44;62.25
30682;BME280;17439;48.092;11.842;2023-04-22T04:54:16;94908.22;;;9.46;62.33
30682;BME280;17439;48.092;11.842;2023-04-22T04:56:43;94899.47;;;9.49;62.32
30682;BME280;17439;48.092;11.842;2023-04-22T04:59:10;94893.75;;;9.51;62.22
30682;BME280;17439;48.092;11.842;2023-04-22T05:01:38;94893.09;;;9.54;62.52
30682;BME280;17439;48.092;11.842;2023-04-22T05:04:07;94884.81;;;9.59;62.40
30682;BME280;17439;48.092;11.842;2023-04-22T05:06:37;94883.09;;;9.63;62.39
30682;BME280;17439;48.092;11.842;2023-04-22T05:09:04;94889.94;;;9.69;62.54
30682;BME280;17439;48.092;11.842;2023-04-22T05:11:31;94893.25;;;9.75;62.53
30682;BME280;17439;48.092;11.842;2023-04-22T05:13:59;94883.09;;;9.80;62.65
30682;BME280;17439;48.092;11.842;2023-04-22T05:16:33;94888.34;;;9.86;62.56
30682;BME280;17439;48.092;11.842;2023-04-22T05:19:00;94894.41;;;9.91;62.47
30682;BME280;17439;48.092;11.842;2023-04-22T05:21:27;94893.13;;;9.97;62.59
30682;BME280;17439;48.092;11.842;2023-04-22T05:23:54;94891.50;;;10.05;62.47
30682;BME280;17439;48.092;11.842;2023-04-22T05:26:21;94902.66;;;10.12;62.55
30682;BME280;17439;48.092;11.842;2023-04-22T05:28:48;94901.38;;;10.19;62.62
30682;BME280;17439;48.092;11.842;2023-04-22T05:31:16;94901.66;;;10.26;62.61
30682;BME280;17439;48.092;11.842;2023-04-22T05:33:43;94905.19;;;10.35;62.52
30682;BME280;17439;48.092;11.842;2023-04-22T05:36:10;94890.03;;;10.43;62.45
30682;BME280;17439;48.092;11.842;2023-04-22T05:38:37;94896.53;;;10.50;62.25
30682;BME280;17439;48.092;11.842;2023-04-22T05:41:03;94898.41;;;10.59;62.20
30682;BME280;17439;48.092;11.842;2023-04-22T05:43:30;94904.16;;;10.66;62.03
30682;BME280;17439;48.092;11.842;2023-04-22T05:46:06;94901.41;;;10.75;62.06
30682;BME280;17439;48.092;11.842;2023-04-22T05:48:36;94914.13;;;10.83;61.70
30682;BME280;17439;48.092;11.842;2023-04-22T05:51:06;94915.22;;;10.91;61.76
30682;BME280;17439;48.092;11.842;2023-04-22T05:53:34;94909.28;;;10.97;61.63
30682;BME280;17439;48.092;11.842;2023-04-22T05:56:01;94902.22;;;11.05;61.57
30682;BME280;17439;48.092;11.842;2023-04-22T05:58:28;94903.63;;;11.11;61.28
30682;BME280;17439;48.092;11.842;2023-04-22T06:01:15;94908.66;;;11.21;61.36
30682;BME280;17439;48.092;11.842;2023-04-22T06:03:51;94915.16;;;11.29;61.07
30682;BME280;17439;48.092;11.842;2023-04-22T06:06:19;94911.63;;;11.37;60.86
30682;BME280;17439;48.092;11.842;2023-04-22T06:08:46;94921.63;;;11.46;60.73
30682;BME280;17439;48.092;11.842;2023-04-22T06:11:12;94923.16;;;11.55;60.86
30682;BME280;17439;48.092;11.842;2023-04-22T06:13:39;94923.91;;;11.65;60.96
30682;BME280;17439;48.092;11.842;2023-04-22T06:16:07;94929.25;;;11.73;60.84
30682;BME280;17439;48.092;11.842;2023-04-22T06:18:54;94918.81;;;11.84;60.93
30682;BME280;17439;48.092;11.842;2023-04-22T06:21:22;94919.25;;;11.95;60.45
30682;BME280;17439;48.092;11.842;2023-04-22T06:23:49;94922.69;;;12.04;60.63
30682;BME280;17439;48.092;11.842;2023-04-22T06:26:15;94920.66;;;12.13;60.48
30682;BME280;17439;48.092;11.842;2023-04-22T06:28:42;94929.53;;;12.23;60.60
30682;BME280;17439;48.092;11.842;2023-04-22T06:31:15;94927.19;;;12.33;60.11
30682;BME280;17439;48.092;11.842;2023-04-22T06:33:45;94924.06;;;12.44;59.84
30682;BME280;17439;48.092;11.842;2023-04-22T06:36:12;94919.31;;;12.53;59.93
30682;BME280;17439;48.092;11.842;2023-04-22T06:38:40;94925.91;;;12.64;59.86
30682;BME280;17439;48.092;11.842;2023-04-22T06:41:31;94933.31;;;12.76;59.72
30682;BME280;17439;48.092;11.842;2023-04-22T06:44:03;94929.38;;;12.86;59.81
30682;BME280;17439;48.092;11.842;2023-04-22T06:46:48;94928.91;;;12.96;59.41
30682;BME280;17439;48.092;11.842;2023-04-22T06:49:47;94937.44;;;13.07;59.39
30682;BME280;17439;48.092;11.842;2023-04-22T06:52:36;94938.22;;;13.20;59.48
30682;BME280;17439;48.092;11.842;2023-04-22T06:55:02;94948.69;;;13.30;59.26
30682;BME280;17439;48.092;11.842;2023-04-22T06:57:29;94940.41;;;13.39;58.56
30682;BME280;17439;48.092;11.842;2023-04-22T06:59:56;94933.38;;;13.50;58.69
30682;BME280;17439;48.092;11.842;2023-04-22T07:02:25;94933.72;;;13.61;58.59
30682;BME280;17439;48.092;11.842;2023-04-22T07:04:52;94932.44;;;13.71;58.58
30682;BME280;17439;48.092;11.842;2023-04-22T07:07:18;94930.03;;;13.82;57.59
30682;BME280;17439;48.092;11.842;2023-04-22T07:09:45;94929.59;;;13.92;57.38
30682;BME280;17439;48.092;11.842;2023-04-22T07:12:12;94925.94;;;14.00;57.69
30682;BME280;17439;48.092;11.842;2023-04-22T07:14:42;94930.00;;;14.06;55.47
30682;BME280;17439;48.092;11.842;2023-04-22T07:17:10;94931.78;;;14.14;57.17
30682;BME280;17439;48.092;11.842;2023-04-22T07:19:37;94923.44;;;14.23;57.19
30682;BME280;17439;48.092;11.842;2023-04-22T07:22:04;94920.59;;;14.32;57.45
30682;BME280;17439;48.092;11.842;2023-04-22T07:24:31;94921.66;;;14.43;56.98
30682;BME280;17439;48.092;11.842;2023-04-22T07:26:58;94922.31;;;14.52;56.47
30682;BME280;17439;48.092;11.842;2023-04-22T07:29:24;94914.34;;;14.60;55.67
30682;BME280;17439;48.092;11.842;2023-04-22T07:31:51;94919.28;;;14.70;56.33
30682;BME280;17439;48.092;11.842;2023-04-22T07:34:18;94919.91;;;14.79;56.06
30682;BME280;17439;48.092;11.842;2023-04-22T07:36:45;94917.00;;;14.88;56.08
30682;BME280;17439;48.092;11.842;2023-04-22T07:39:11;94914.22;;;15.00;55.33
30682;BME280;17439;48.092;11.842;2023-04-22T07:41:38;94907.84;;;15.12;53.66
30682;BME280;17439;48.092;11.842;2023-04-22T07:44:05;94909.59;;;15.20;53.65
30682;BME280;17439;48.092;11.842;2023-04-22T07:46:31;94915.31;;;15.31;52.86
30682;BME280;17439;48.092;11.842;2023-04-22T07:48:58;94910.47;;;15.40;51.73
30682;BME280;17439;48.092;11.842;2023-04-22T07:51:25;94907.81;;;15.44;52.06
30682;BME280;17439;48.092;11.842;2023-04-22T07:53:51;94906.84;;;15.52;52.46
30682;BME280;17439;48.092;11.842;2023-04-22T07:56:18;94910.53;;;15.60;52.23
30682;BME280;17439;48.092;11.842;2023-04-22T07:58:44;94911.47;;;15.68;53.10
30682;BME280;17439;48.092;11.842;2023-04-22T08:01:11;94906.19;;;15.75;53.12
30682;BME280;17439;48.092;11.842;2023-04-22T08:03:38;94906.72;;;15.81;52.57
30682;BME280;17439;48.092;11.842;2023-04-22T08:06:05;94905.34;;;15.90;53.51
30682;BME280;17439;48.092;11.842;2023-04-22T08:08:31;94912.53;;;15.99;53.21
30682;BME280;17439;48.092;11.842;2023-04-22T08:10:58;94910.41;;;16.08;53.49
30682;BME280;17439;48.092;11.842;2023-04-22T08:13:25;94912.22;;;16.20;53.52
30682;BME280;17439;48.092;11.842;2023-04-22T08:15:51;94912.00;;;16.28;52.62
30682;BME280;17439;48.092;11.842;2023-04-22T08:18:18;94898.81;;;16.34;52.12
30682;BME280;17439;48.092;11.842;2023-04-22T08:20:46;94896.66;;;16.43;52.18
30682;BME280;17439;48.092;11.842;2023-04-22T08:23:12;94903.13;;;16.55;52.26
30682;BME280;17439;48.092;11.842;2023-04-22T08:25:39;94909.94;;;16.64;51.63
30682;BME280;17439;48.092;11.842;2023-04-22T08:28:06;94903.09;;;16.74;51.16
30682;BME280;17439;48.092;11.842;2023-04-22T08:30:32;94898.09;;;16.80;50.60
30682;BME280;17439;48.092;11.842;2023-04-22T08:32:59;94901.41;;;16.89;50.40
30682;BME280;17439;48.092;11.842;2023-04-22T08:35:26;94899.63;;;17.00;50.89
30682;BME280;17439;48.092;11.842;2023-04-22T08:37:52;94901.78;;;17.11;51.03
30682;BME280;17439;48.092;11.842;2023-04-22T08:40:19;94894.91;;;17.20;50.77
30682;BME280;17439;48.092;11.842;2023-04-22T08:42:46;94904.03;;;17.28;49.77
30682;BME280;17439;48.092;11.842;2023-04-22T08:45:13;94908.03;;;17.34;48.96
30682;BME280;17439;48.092;11.842;2023-04-22T08:47:44;94903.09;;;17.44;48.95
30682;BME280;17439;48.092;11.842;2023-04-22T08:50:11;94902.00;;;17.48;48.30
30682;BME280;17439;48.092;11.842;2023-04-22T08:52:38;94909.56;;;17.58;48.49
30682;BME280;17439;48.092;11.842;2023-04-22T08:55:05;94906.56;;;17.67;48.84
30682;BME280;17439;48.092;11.842;2023-04-22T08:57:32;94909.81;;;17.76;48.91
30682;BME280;17439;48.092;11.842;2023-04-22T09:00:01;94914.22;;;17.85;47.73
30682;BME280;17439;48.092;11.842;2023-04-22T09:02:28;94906.94;;;17.92;46.75
30682;BME280;17439;48.092;11.842;2023-04-22T09:04:57;94907.81;;;18.00;47.11
30682;BME280;17439;48.092;11.842;2023-04-22T09:07:29;94902.88;;;18.13;45.86
30682;BME280;17439;48.092;11.842;2023-04-22T09:09:56;94897.13;;;18.22;47.04
30682;BME280;17439;48.092;11.842;2023-04-22T09:12:26;94898.78;;;18.30;46.17
30682;BME280;17439;48.092;11.842;2023-04-22T09:14:53;94893.44;;;18.41;43.97
30682;BME280;17439;48.092;11.842;2023-04-22T09:17:33;94891.88;;;18.43;43.64
30682;BME280;17439;48.092;11.842;2023-04-22T09:20:01;94893.94;;;18.50;45.68
30682;BME280;17439;48.092;11.842;2023-04-22T09:22:44;94888.09;;;18.55;41.92
30682;BME280;17439;48.092;11.842;2023-04-22T09:25:21;94885.00;;;18.60;42.94
30682;BME280;17439;48.092;11.842;2023-04-22T09:30:17;94878.44;;;18.68;44.58
30682;BME280;17439;48.092;11.842;2023-04-22T09:32:54;94881.28;;;18.79;44.18
30682;BME280;17439;48.092;11.842;2023-04-22T09:35:29;94876.56;;;18.80;43.44
30682;BME280;17439;48.092;11.842;2023-04-22T09:37:58;94886.53;;;18.92;44.77
30682;BME280;17439;48.092;11.842;2023-04-22T09:40:26;94885.44;;;19.00;43.93
30682;BME280;17439;48.092;11.842;2023-04-22T09:42:55;94883.09;;;19.06;43.03
30682;BME280;17439;48.092;11.842;2023-04-22T09:45:41;94871.81;;;19.14;42.26
30682;BME280;17439;48.092;11.842;2023-04-22T09:48:13;94878.59;;;19.28;45.12
30682;BME280;17439;48.092;11.842;2023-04-22T09:50:45;94874.75;;;19.39;42.80
30682;BME280;17439;48.092;11.842;2023-04-22T09:53:14;94877.94;;;19.45;42.10
30682;BME280;17439;48.092;11.842;2023-04-22T09:55:53;94874.13;;;19.61;42.51
30682;BME280;17439;48.092;11.842;2023-04-22T09:58:21;94869.84;;;19.67;42.30
30682;BME280;17439;48.092;11.842;2023-04-22T10:00:51;94869.94;;;19.78;41.95
30682;BME280;17439;48.092;11.842;2023-04-22T10:03:18;94864.06;;;19.86;43.35
30682;BME280;17439;48.092;11.842;2023-04-22T10:05:45;94871.19;;;19.94;42.95
30682;BME280;17439;48.092;11.842;2023-04-22T10:08:13;94865.75;;;20.05;41.55
30682;BME280;17439;48.092;11.842;2023-04-22T10:10:41;94852.41;;;20.11;42.01
30682;BME280;17439;48.092;11.842;2023-04-22T10:13:08;94857.16;;;20.14;42.47
30682;BME280;17439;48.092;11.842;2023-04-22T10:15:41;94856.38;;;20.17;39.16
30682;BME280;17439;48.092;11.842;2023-04-22T10:18:10;94855.59;;;20.24;42.53
30682;BME280;17439;48.092;11.842;2023-04-22T10:20:39;94848.94;;;20.28;40.99
30682;BME280;17439;48.092;11.842;2023-04-22T10:23:13;94852.50;;;20.40;40.19
30682;BME280;17439;48.092;11.842;2023-04-22T10:25:40;94850.19;;;20.49;40.93
30682;BME280;17439;48.092;11.842;2023-04-22T10:28:09;94850.97;;;20.57;41.59
30682;BME280;17439;48.092;11.842;2023-04-22T10:30:38;94841.94;;;20.63;40.61
30682;BME280;17439;48.092;11.842;2023-04-22T10:36:06;94836.88;;;20.69;39.13
30682;BME280;17439;48.092;11.842;2023-04-22T10:38:34;94840.81;;;20.68;39.10
30682;BME280;17439;48.092;11.842;2023-04-22T10:41:01;94840.41;;;20.77;40.74
30682;BME280;17439;48.092;11.842;2023-04-22T10:43:45;94832.94;;;20.88;40.44
30682;BME280;17439;48.092;11.842;2023-04-22T10:48:57;94826.66;;;21.09;40.20
30682;BME280;17439;48.092;11.842;2023-04-22T10:51:42;94822.34;;;21.12;36.77
30682;BME280;17439;48.092;11.842;2023-04-22T10:57:08;94822.72;;;21.28;38.29
30682;BME280;17439;48.092;11.842;2023-04-22T10:59:45;94815.22;;;21.32;36.43
30682;BME280;17439;48.092;11.842;2023-04-22T11:02:16;94817.97;;;21.36;37.94
30682;BME280;17439;48.092;11.842;2023-04-22T11:04:44;94804.19;;;21.43;39.27
30682;BME280;17439;48.092;11.842;2023-04-22T11:09:49;94814.84;;;21.55;37.48
30682;BME280;17439;48.092;11.842;2023-04-22T11:15:09;94814.78;;;21.73;38.71
30682;BME280;17439;48.092;11.842;2023-04-22T11:17:37;94814.75;;;21.88;37.61
30682;BME280;17439;48.092;11.842;2023-04-22T11:20:05;94813.16;;;21.87;38.94
30682;BME280;17439;48.092;11.842;2023-04-22T11:22:36;94809.97;;;21.99;36.88
30682;BME280;17439;48.092;11.842;2023-04-22T11:25:04;94812.31;;;22.08;36.02
30682;BME280;17439;48.092;11.842;2023-04-22T11:27:31;94809.88;;;22.17;37.32
30682;BME280;17439;48.092;11.842;2023-04-22T11:30:02;94808.25;;;22.27;35.82
30682;BME280;17439;48.092;11.842;2023-04-22T11:32:30;94802.75;;;22.34;37.32
30682;BME280;17439;48.092;11.842;2023-04-22T11:34:57;94801.16;;;22.33;35.30
30682;BME280;17439;48.092;11.842;2023-04-22T11:37:24;94799.13;;;22.44;36.83
30682;BME280;17439;48.092;11.842;2023-04-22T11:39:50;94792.81;;;22.44;35.49
30682;BME280;17439;48.092;11.842;2023-04-22T11:42:21;94803.03;;;22.51;36.00
30682;BME280;17439;48.092;11.842;2023-04-22T11:44:49;94790.38;;;22.57;34.84
30682;BME280;17439;48.092;11.842;2023-04-22T11:47:16;94797.41;;;22.65;36.23
30682;BME280;17439;48.092;11.842;2023-04-22T11:49:59;94792.28;;;22.67;33.18
30682;BME280;17439;48.092;11.842;2023-04-22T11:55:22;94795.72;;;22.82;36.70
30682;BME280;17439;48.092;11.842;2023-04-22T11:57:57;94797.66;;;22.89;33.93
30682;BME280;17439;48.092;11.842;2023-04-22T12:00:33;94798.41;;;22.93;32.28
30682;BME280;17439;48.092;11.842;2023-04-22T12:03:02;94794.78;;;23.03;37.04
30682;BME280;17439;48.092;11.842;2023-04-22T12:05:40;94782.94;;;23.03;31.75
30682;BME280;17439;48.092;11.842;2023-04-22T12:08:13;94788.44;;;23.10;35.16
30682;BME280;17439;48.092;11.842;2023-04-22T12:13:08;94793.59;;;23.08;29.37
30682;BME280;17439;48.092;11.842;2023-04-22T12:15:41;94786.34;;;23.25;33.62
30682;BME280;17439;48.092;11.842;2023-04-22T12:18:09;94782.31;;;23.33;34.77
30682;BME280;17439;48.092;11.842;2023-04-22T12:20:37;94782.25;;;23.40;35.46
30682;BME280;17439;48.092;11.842;2023-04-22T12:23:04;94780.53;;;23.53;31.24
30682;BME280;17439;48.092;11.842;2023-04-22T12:25:31;94782.09;;;23.54;33.03
30682;BME280;17439;48.092;11.842;2023-04-22T12:27:58;94782.94;;;23.51;31.75
30682;BME280;17439;48.092;11.842;2023-04-22T12:30:25;94782.94;;;23.51;33.27
30682;BME280;17439;48.092;11.842;2023-04-22T12:32:52;94774.94;;;23.57;33.59
30682;BME280;17439;48.092;11.842;2023-04-22T12:35:18;94771.69;;;23.66;34.36
30682;BME280;17439;48.092;11.842;2023-04-22T12:37:45;94774.72;;;23.79;31.56
30682;BME280;17439;48.092;11.842;2023-04-22T12:40:12;94784.16;;;23.81;31.17
30682;BME280;17439;48.092;11.842;2023-04-22T12:42:38;94773.09;;;23.81;30.40
30682;BME280;17439;48.092;11.842;2023-04-22T12:45:05;94771.03;;;23.93;32.77
30682;BME280;17439;48.092;11.842;2023-04-22T12:47:32;94773.69;;;24.00;33.49
30682;BME280;17439;48.092;11.842;2023-04-22T12:49:59;94767.69;;;24.05;33.15
30682;BME280;17439;48.092;11.842;2023-04-22T12:52:26;94767.97;;;24.14;31.91
30682;BME280;17439;48.092;11.842;2023-04-22T12:54:52;94774.97;;;24.26;32.19
30682;BME280;17439;48.092;11.842;2023-04-22T12:57:19;94760.53;;;24.38;31.25
30682;BME280;17439;48.092;11.842;2023-04-22T12:59:46;94760.03;;;24.47;31.86
30682;BME280;17439;48.092;11.842;2023-04-22T13:02:12;94755.59;;;24.53;31.09
30682;BME280;17439;48.092;11.842;2023-04-22T13:04:40;94753.53;;;24.61;32.13
30682;BME280;17439;48.092;11.842;2023-04-22T13:07:06;94754.97;;;24.69;31.86
30682;BME280;17439;48.092;11.842;2023-04-22T13:09:33;94746.59;;;24.73;31.77
30682;BME280;17439;48.092;11.842;2023-04-22T13:12:00;94739.44;;;24.75;32.08
30682;BME280;17439;48.092;11.842;2023-04-22T13:14:26;94743.72;;;24.80;31.81
30682;BME280;17439;48.092;11.842;2023-04-22T13:16:53;94734.19;;;24.81;32.04
30682;BME280;17439;48.092;11.842;2023-04-22T13:19:20;94736.25;;;24.77;31.84
30682;BME280;17439;48.092;11.842;2023-04-22T13:21:46;94735.53;;;24.73;30.54